Time;durP1;ratioP1;P1;durP2;ratioP2;P2;SDS_P1;SDS_P2;PMS_P1;PMS_P2;Temp;Humidity;BMP_temperature;BMP_pressure;BME280_temperature;BME280_humidity;BME280_pressure;Samples;Min_cycle;Max_cycle;Signal;HPM_P1;HPM_P2
2023/12/06 00:02:05;;;;;;;128.20;77.20;;;;;;;-3.09;100.00;98765.21;108790;1251;1002368;-73
2023/12/06 00:04:31;;;;;;;123.70;76.70;;;;;;;-3.09;100.00;98764.17;109530;1251;59004;-72
2023/12/06 00:06:58;;;;;;;121.30;76.30;;;;;;;-3.08;100.00;98761.73;109391;1252;65424;-73
2023/12/06 00:09:25;;;;;;;115.90;76.50;;;;;;;-3.06;100.00;98759.10;109596;1251;61080;-72
2023/12/06 00:11:51;;;;;;;116.10;75.10;;;;;;;-3.08;100.00;98751.31;109491;1251;65390;-72
2023/12/06 00:14:18;;;;;;;125.50;77.30;;;;;;;-3.06;100.00;98747.80;109230;1251;59085;-73
2023/12/06 00:16:44;;;;;;;115.80;74.60;;;;;;;-3.04;100.00;98746.38;109574;1251;59012;-73
2023/12/06 00:19:11;;;;;;;112.90;72.00;;;;;;;-3.02;100.00;98739.92;109545;1251;66926;-73
2023/12/06 00:21:37;;;;;;;115.40;70.60;;;;;;;-3.00;100.00;98736.07;109548;1251;60036;-72
2023/12/06 00:24:05;;;;;;;121.60;72.50;;;;;;;-2.99;100.00;98732.91;109554;1251;65132;-72
2023/12/06 00:26:31;;;;;;;118.90;72.90;;;;;;;-2.98;100.00;98729.59;109320;1251;59116;-73
2023/12/06 00:28:58;;;;;;;119.00;73.50;;;;;;;-2.97;100.00;98724.37;109559;1251;59167;-72
2023/12/06 00:31:25;;;;;;;119.20;73.50;;;;;;;-2.98;100.00;98718.13;109516;1251;66018;-72
2023/12/06 00:33:51;;;;;;;119.10;73.10;;;;;;;-2.99;100.00;98715.88;109578;1251;61053;-72
2023/12/06 00:36:18;;;;;;;120.10;72.80;;;;;;;-2.99;100.00;98714.15;109570;1251;64021;-73
2023/12/06 00:38:44;;;;;;;119.10;74.70;;;;;;;-2.99;100.00;98719.54;109553;1251;59093;-74
2023/12/06 00:41:11;;;;;;;132.50;83.00;;;;;;;-3.00;100.00;98717.47;109352;1251;59103;-71
2023/12/06 00:43:38;;;;;;;126.40;77.30;;;;;;;-2.99;100.00;98723.37;108777;1251;1003036;-72
2023/12/06 00:46:07;;;;;;;137.10;82.30;;;;;;;-2.99;100.00;98717.27;109582;1251;60119;-72
2023/12/06 00:48:34;;;;;;;130.80;78.50;;;;;;;-2.98;100.00;98716.74;109599;1251;65067;-73
2023/12/06 00:51:01;;;;;;;138.30;82.70;;;;;;;-2.97;100.00;98715.86;109582;1251;59023;-73
2023/12/06 00:53:28;;;;;;;135.90;84.00;;;;;;;-2.95;100.00;98717.56;109386;1251;59061;-72
2023/12/06 00:55:55;;;;;;;125.80;76.30;;;;;;;-2.94;100.00;98718.40;109535;1251;66985;-72
2023/12/06 00:58:22;;;;;;;130.80;78.90;;;;;;;-2.93;100.00;98721.70;108819;1251;1002323;-73
2023/12/06 01:00:48;;;;;;;124.00;79.60;;;;;;;-2.95;100.00;98724.50;108782;1251;1003013;-72
2023/12/06 01:03:15;;;;;;;128.10;79.60;;;;;;;-2.95;100.00;98725.54;108770;1251;1002972;-73
2023/12/06 01:05:41;;;;;;;122.50;76.80;;;;;;;-2.96;100.00;98723.82;109620;1251;58951;-73
2023/12/06 01:08:08;;;;;;;119.60;76.40;;;;;;;-2.97;100.00;98724.17;109375;1252;59188;-72
2023/12/06 01:10:35;;;;;;;125.80;78.40;;;;;;;-2.98;100.00;98729.59;109535;1251;59001;-72
2023/12/06 01:13:01;;;;;;;126.70;81.00;;;;;;;-2.98;100.00;98731.13;109521;1251;59058;-72
2023/12/06 01:15:28;;;;;;;122.90;77.20;;;;;;;-2.96;100.00;98731.65;109398;1251;59090;-73
2023/12/06 01:17:54;;;;;;;117.20;75.50;;;;;;;-2.96;100.00;98731.98;109597;1251;59007;-73
2023/12/06 01:20:21;;;;;;;119.70;75.00;;;;;;;-2.94;100.00;98729.19;109545;1251;65926;-74
2023/12/06 01:22:48;;;;;;;113.30;72.90;;;;;;;-2.93;100.00;98725.67;109565;1251;61117;-73
2023/12/06 01:25:14;;;;;;;119.30;76.20;;;;;;;-2.91;100.00;98726.68;109582;1251;65054;-73
2023/12/06 01:27:41;;;;;;;113.70;76.20;;;;;;;-2.91;100.00;98727.55;109273;1251;59465;-73
2023/12/06 01:30:08;;;;;;;121.10;78.10;;;;;;;-2.91;100.00;98728.96;109290;1251;59348;-73
2023/12/06 01:32:35;;;;;;;123.70;79.10;;;;;;;-2.91;100.00;98724.80;109529;1251;67034;-74
2023/12/06 01:35:01;;;;;;;122.50;78.60;;;;;;;-2.92;100.00;98722.89;109276;1250;60184;-73
2023/12/06 01:37:28;;;;;;;117.00;77.70;;;;;;;-2.92;100.00;98718.02;109558;1251;65114;-73
2023/12/06 01:39:55;;;;;;;120.80;76.40;;;;;;;-2.92;100.00;98712.64;109538;1251;59063;-73
2023/12/06 01:42:21;;;;;;;131.60;81.10;;;;;;;-2.92;100.00;98712.80;109599;1251;58882;-74
2023/12/06 01:44:48;;;;;;;126.40;81.40;;;;;;;-2.92;100.00;98715.08;109566;1251;66111;-74
2023/12/06 01:47:19;;;;;;;125.90;80.60;;;;;;;-2.92;100.00;98715.95;109557;1251;60073;-73
2023/12/06 01:49:46;;;;;;;124.50;79.50;;;;;;;-2.92;100.00;98711.77;109145;1251;65106;-74
2023/12/06 01:52:13;;;;;;;123.10;78.90;;;;;;;-2.91;100.00;98713.31;109509;1251;60752;-73
2023/12/06 01:54:39;;;;;;;116.90;77.00;;;;;;;-2.90;100.00;98719.02;108794;1251;1002723;-72
2023/12/06 01:57:06;;;;;;;126.50;79.70;;;;;;;-2.88;100.00;98717.27;109577;1251;67011;-72
2023/12/06 01:59:33;;;;;;;136.00;85.40;;;;;;;-2.86;100.00;98712.53;109545;1251;61117;-73
2023/12/06 02:01:59;;;;;;;125.40;77.00;;;;;;;-2.86;100.00;98714.27;109558;1251;65120;-73
2023/12/06 02:04:26;;;;;;;128.90;80.00;;;;;;;-2.86;100.00;98721.73;109563;1251;59021;-74
2023/12/06 02:06:53;;;;;;;131.70;83.80;;;;;;;-2.86;100.00;98731.82;109574;1251;59009;-73
2023/12/06 02:09:21;;;;;;;128.30;81.50;;;;;;;-2.85;100.00;98729.55;109540;1250;66005;-73
2023/12/06 02:11:49;;;;;;;123.00;79.70;;;;;;;-2.84;100.00;98727.45;109538;1251;60028;-73
2023/12/06 02:14:16;;;;;;;125.90;80.70;;;;;;;-2.84;100.00;98726.57;109528;1251;64054;-73
2023/12/06 02:16:43;;;;;;;131.40;82.50;;;;;;;-2.85;100.00;98724.66;109526;1251;59038;-73
2023/12/06 02:19:22;;;;;;;126.80;80.90;;;;;;;-2.85;100.00;98721.38;109391;1251;59024;-73
2023/12/06 02:21:49;;;;;;;124.40;80.30;;;;;;;-2.85;100.00;98722.08;109374;1251;66028;-73
2023/12/06 02:24:18;;;;;;;127.70;81.20;;;;;;;-2.85;100.00;98718.77;109522;1251;60820;-72
2023/12/06 02:26:45;;;;;;;125.90;80.10;;;;;;;-2.86;100.00;98715.30;108835;1251;1002413;-73
2023/12/06 02:29:12;;;;;;;136.30;81.80;;;;;;;-2.88;100.00;98711.52;109513;1251;58972;-73
2023/12/06 02:31:38;;;;;;;123.10;74.70;;;;;;;-2.90;100.00;98710.35;109618;1251;59035;-72
2023/12/06 02:34:09;;;;;;;127.40;79.30;;;;;;;-2.90;100.00;98711.73;109537;1250;59766;-73
2023/12/06 02:36:38;;;;;;;133.40;84.70;;;;;;;-2.89;100.00;98711.38;109557;1250;61267;-72
2023/12/06 02:39:05;;;;;;;134.90;81.10;;;;;;;-2.89;100.00;98711.54;109578;1251;64995;-72
2023/12/06 02:41:34;;;;;;;133.80;84.50;;;;;;;-2.88;100.00;98713.10;108782;1251;1002513;-72
2023/12/06 02:44:01;;;;;;;127.80;82.50;;;;;;;-2.88;100.00;98708.39;109586;1251;59026;-72
2023/12/06 02:46:28;;;;;;;121.90;79.00;;;;;;;-2.88;100.00;98701.95;109582;1250;67123;-72
2023/12/06 02:48:56;;;;;;;120.20;79.80;;;;;;;-2.88;100.00;98698.31;109347;1251;60185;-73
2023/12/06 02:51:23;;;;;;;126.60;80.60;;;;;;;-2.88;100.00;98696.57;108794;1251;1002319;-73
2023/12/06 02:53:49;;;;;;;131.10;82.30;;;;;;;-2.88;100.00;98699.86;109386;1250;59039;-73
2023/12/06 02:56:16;;;;;;;128.20;82.10;;;;;;;-2.85;100.00;98706.25;109567;1251;58858;-73
2023/12/06 02:58:43;;;;;;;128.60;81.50;;;;;;;-2.83;100.00;98710.92;109595;1251;67195;-73
2023/12/06 03:01:09;;;;;;;129.70;84.00;;;;;;;-2.81;100.00;98713.67;109394;1250;61117;-73
2023/12/06 03:03:36;;;;;;;123.70;78.70;;;;;;;-2.80;100.00;98714.86;109559;1251;65299;-74
2023/12/06 03:06:03;;;;;;;124.60;80.20;;;;;;;-2.78;100.00;98717.95;109550;1251;58944;-72
2023/12/06 03:08:29;;;;;;;132.90;80.90;;;;;;;-2.76;100.00;98726.09;109564;1251;59061;-72
2023/12/06 03:10:56;;;;;;;121.70;76.70;;;;;;;-2.74;100.00;98722.92;109369;1251;67040;-72
2023/12/06 03:13:22;;;;;;;122.40;78.70;;;;;;;-2.73;100.00;98719.62;109591;1250;61209;-72
2023/12/06 03:15:49;;;;;;;124.10;77.70;;;;;;;-2.72;100.00;98720.81;109562;1251;64015;-73
2023/12/06 03:18:16;;;;;;;124.60;78.70;;;;;;;-2.71;100.00;98726.20;109544;1251;59011;-73
2023/12/06 03:20:42;;;;;;;117.00;76.50;;;;;;;-2.71;100.00;98728.79;109601;1251;59155;-72
2023/12/06 03:23:09;;;;;;;122.40;75.80;;;;;;;-2.71;100.00;98725.65;109588;1251;67083;-73
2023/12/06 03:25:35;;;;;;;113.50;70.90;;;;;;;-2.71;100.00;98728.27;109574;1251;61470;-73
2023/12/06 03:28:03;;;;;;;105.90;66.90;;;;;;;-2.70;100.00;98721.98;109575;1251;65098;-72
2023/12/06 03:30:29;;;;;;;111.50;74.50;;;;;;;-2.71;100.00;98721.48;109558;1251;59012;-72
2023/12/06 03:32:56;;;;;;;115.30;74.00;;;;;;;-2.72;100.00;98723.05;108801;1251;1002429;-72
2023/12/06 03:35:23;;;;;;;113.40;72.40;;;;;;;-2.71;100.00;98723.92;109546;1251;67154;-72
2023/12/06 03:37:49;;;;;;;110.50;73.20;;;;;;;-2.71;100.00;98717.48;109562;1251;60777;-73
2023/12/06 03:40:16;;;;;;;113.20;75.60;;;;;;;-2.70;100.00;98716.60;109517;1251;64199;-73
2023/12/06 03:42:42;;;;;;;120.90;73.80;;;;;;;-2.71;100.00;98716.10;109507;1251;59053;-73
2023/12/06 03:45:12;;;;;;;114.10;71.60;;;;;;;-2.71;100.00;98716.09;109580;1251;58963;-73
2023/12/06 03:47:39;;;;;;;111.20;72.50;;;;;;;-2.71;100.00;98720.63;109562;1251;66006;-73
2023/12/06 03:50:06;;;;;;;113.90;72.10;;;;;;;-2.70;100.00;98718.69;109594;1251;60116;-74
2023/12/06 03:52:33;;;;;;;113.30;71.80;;;;;;;-2.69;100.00;98718.65;109581;1251;64963;-73
2023/12/06 03:55:00;;;;;;;114.30;72.10;;;;;;;-2.69;100.00;98717.78;109403;1251;173549;-72
2023/12/06 03:57:27;;;;;;;110.30;69.70;;;;;;;-2.68;100.00;98712.73;109509;1251;58965;-73
2023/12/06 03:59:53;;;;;;;110.60;72.60;;;;;;;-2.69;100.00;98712.39;109292;1251;64755;-72
2023/12/06 04:02:20;;;;;;;115.60;71.50;;;;;;;-2.70;100.00;98715.54;109599;1250;61225;-73
2023/12/06 04:04:46;;;;;;;111.90;69.50;;;;;;;-2.72;100.00;98716.27;109503;1251;62841;-73
2023/12/06 04:07:13;;;;;;;111.30;68.50;;;;;;;-2.73;100.00;98715.25;109432;1251;59066;-73
2023/12/06 04:09:40;;;;;;;113.30;68.70;;;;;;;-2.76;100.00;98714.61;109577;1251;58964;-72
2023/12/06 04:12:07;;;;;;;113.30;67.30;;;;;;;-2.78;100.00;98718.98;109552;1251;65964;-74
2023/12/06 04:14:34;;;;;;;106.90;65.00;;;;;;;-2.81;100.00;98717.65;109613;1250;60307;-73
2023/12/06 04:17:00;;;;;;;109.80;66.30;;;;;;;-2.84;100.00;98718.76;109566;1251;65024;-73
2023/12/06 04:19:27;;;;;;;106.00;64.90;;;;;;;-2.86;100.00;98716.35;109595;1251;59037;-73
2023/12/06 04:21:53;;;;;;;108.60;69.30;;;;;;;-2.89;100.00;98716.91;109582;1251;59116;-74
2023/12/06 04:24:20;;;;;;;106.70;67.40;;;;;;;-2.91;100.00;98720.10;108048;1251;1002328;-74
2023/12/06 04:26:46;;;;;;;116.50;73.70;;;;;;;-2.93;100.00;98722.20;108875;1251;1006282;-73
2023/12/06 04:29:13;;;;;;;109.90;69.10;;;;;;;-2.93;100.00;98718.04;108829;1251;1002577;-72
2023/12/06 04:31:39;;;;;;;114.40;70.00;;;;;;;-2.94;100.00;98714.94;108828;1251;1003006;-73
2023/12/06 04:34:06;;;;;;;108.60;69.90;;;;;;;-2.94;100.00;98716.51;109365;1251;59050;-74
2023/12/06 04:36:33;;;;;;;112.00;67.10;;;;;;;-2.94;100.00;98722.39;108779;1251;1002350;-73
2023/12/06 04:38:59;;;;;;;112.50;70.30;;;;;;;-2.94;100.00;98727.45;108838;1251;1002447;-73
2023/12/06 04:41:26;;;;;;;116.40;72.40;;;;;;;-2.93;100.00;98731.60;108860;1251;1002069;-73
2023/12/06 04:43:53;;;;;;;109.10;71.70;;;;;;;-2.92;100.00;98731.06;109580;1251;59014;-72
2023/12/06 04:46:19;;;;;;;112.60;70.00;;;;;;;-2.92;100.00;98732.46;109621;1251;59358;-73
2023/12/06 04:48:46;;;;;;;117.20;73.90;;;;;;;-2.92;100.00;98731.74;109553;1251;66979;-72
2023/12/06 04:51:13;;;;;;;117.00;75.50;;;;;;;-2.91;100.00;98732.27;109655;1251;60078;-74
2023/12/06 04:53:39;;;;;;;121.00;76.60;;;;;;;-2.90;100.00;98727.55;109590;1251;64037;-73
2023/12/06 04:56:06;;;;;;;115.80;73.20;;;;;;;-2.88;100.00;98731.16;109561;1251;59277;-73
2023/12/06 04:58:33;;;;;;;121.60;75.30;;;;;;;-2.86;100.00;98730.62;109602;1251;58895;-73
2023/12/06 05:00:59;;;;;;;114.70;72.30;;;;;;;-2.87;100.00;98733.23;108815;1251;1002744;-73
2023/12/06 05:03:26;;;;;;;110.80;70.20;;;;;;;-2.88;100.00;98734.98;109579;1251;60245;-73
2023/12/06 05:05:53;;;;;;;116.60;73.90;;;;;;;-2.88;100.00;98733.07;109585;1251;65053;-73
2023/12/06 05:08:20;;;;;;;117.70;71.60;;;;;;;-2.86;100.00;98726.44;109601;1251;59009;-73
2023/12/06 05:10:47;;;;;;;123.00;74.30;;;;;;;-2.86;100.00;98728.00;109593;1251;58883;-73
2023/12/06 05:13:14;;;;;;;116.00;71.30;;;;;;;-2.86;100.00;98728.52;109565;1251;66064;-73
2023/12/06 05:15:40;;;;;;;111.90;72.10;;;;;;;-2.87;100.00;98736.17;109376;1251;60052;-73
2023/12/06 05:18:07;;;;;;;111.10;70.30;;;;;;;-2.85;100.00;98740.66;109558;1251;64029;-73
2023/12/06 05:20:34;;;;;;;122.40;74.50;;;;;;;-2.84;100.00;98739.45;109537;1251;59283;-73
2023/12/06 05:23:00;;;;;;;121.30;75.60;;;;;;;-2.83;100.00;98737.68;109317;1251;58980;-73
2023/12/06 05:25:27;;;;;;;122.80;76.10;;;;;;;-2.82;100.00;98736.09;109638;1250;66939;-74
2023/12/06 05:27:53;;;;;;;114.80;76.50;;;;;;;-2.80;100.00;98741.63;109560;1251;61075;-73
2023/12/06 05:30:20;;;;;;;123.10;76.70;;;;;;;-2.79;100.00;98741.62;109565;1251;63959;-72
2023/12/06 05:32:47;;;;;;;117.90;75.90;;;;;;;-2.79;100.00;98742.48;109599;1251;59094;-73
2023/12/06 05:35:14;;;;;;;124.70;79.20;;;;;;;-2.78;100.00;98743.86;109444;1251;59014;-73
2023/12/06 05:37:40;;;;;;;126.30;79.60;;;;;;;-2.80;100.00;98745.98;109563;1251;65976;-72
2023/12/06 05:40:07;;;;;;;120.10;76.20;;;;;;;-2.81;100.00;98748.09;109540;1250;69884;-73
2023/12/06 05:42:34;;;;;;;120.70;77.10;;;;;;;-2.83;100.00;98744.13;109575;1251;64083;-73
2023/12/06 05:45:01;;;;;;;121.40;80.70;;;;;;;-2.84;100.00;98743.61;109557;1251;59078;-73
2023/12/06 05:47:28;;;;;;;119.50;77.10;;;;;;;-2.84;100.00;98744.13;109583;1251;59020;-72
2023/12/06 05:49:54;;;;;;;124.60;79.10;;;;;;;-2.86;100.00;98742.44;109553;1251;66993;-73
2023/12/06 05:52:21;;;;;;;130.30;83.00;;;;;;;-2.87;100.00;98738.98;109296;1251;59013;-72
2023/12/06 05:54:47;;;;;;;136.40;82.60;;;;;;;-2.88;100.00;98737.93;109567;1251;64090;-72
2023/12/06 05:57:14;;;;;;;122.60;76.90;;;;;;;-2.90;100.00;98739.55;109539;1251;59097;-72
2023/12/06 05:59:40;;;;;;;131.90;80.50;;;;;;;-2.93;100.00;98741.34;109567;1251;59035;-73
2023/12/06 06:02:07;;;;;;;124.30;78.80;;;;;;;-2.95;100.00;98746.58;109544;1250;66998;-73
2023/12/06 06:04:34;;;;;;;123.20;74.00;;;;;;;-2.95;100.00;98743.96;109582;1250;60323;-73
2023/12/06 06:07:00;;;;;;;121.70;74.20;;;;;;;-2.93;100.00;98743.42;109387;1251;64714;-72
2023/12/06 06:09:27;;;;;;;128.50;79.70;;;;;;;-2.92;100.00;98743.23;109594;1251;59251;-72
2023/12/06 06:11:53;;;;;;;135.10;82.40;;;;;;;-2.90;100.00;98749.10;109570;1253;58909;-72
2023/12/06 06:14:20;;;;;;;136.30;84.30;;;;;;;-2.89;100.00;98749.10;109601;1251;66983;-72
2023/12/06 06:16:47;;;;;;;146.10;85.90;;;;;;;-2.88;100.00;98750.63;109599;1250;61127;-72
2023/12/06 06:19:14;;;;;;;142.40;89.50;;;;;;;-2.87;100.00;98749.05;109378;1251;65058;-74
2023/12/06 06:21:41;;;;;;;138.20;84.80;;;;;;;-2.84;100.00;98747.27;109605;1251;59061;-73
2023/12/06 06:24:09;;;;;;;127.60;81.60;;;;;;;-2.83;100.00;98746.55;109611;1251;58964;-73
2023/12/06 06:26:35;;;;;;;127.10;77.60;;;;;;;-2.84;100.00;98749.35;108033;1251;1002573;-73
2023/12/06 06:29:02;;;;;;;132.50;85.60;;;;;;;-2.83;100.00;98754.54;109619;1250;61166;-73
2023/12/06 06:31:28;;;;;;;123.50;75.50;;;;;;;-2.79;100.00;98753.27;109546;1251;65099;-73
2023/12/06 06:33:56;;;;;;;124.90;79.50;;;;;;;-2.77;100.00;98757.40;107872;1251;1002845;-73
2023/12/06 06:36:22;;;;;;;130.50;82.00;;;;;;;-2.75;100.00;98758.05;109592;1251;59149;-72
2023/12/06 06:38:49;;;;;;;119.70;78.20;;;;;;;-2.72;100.00;98758.01;109608;1251;66168;-72
2023/12/06 06:41:16;;;;;;;122.10;76.60;;;;;;;-2.71;100.00;98762.52;109581;1251;61198;-72
2023/12/06 06:43:43;;;;;;;129.90;80.80;;;;;;;-2.71;100.00;98763.22;109533;1251;65022;-72
2023/12/06 06:46:10;;;;;;;119.40;75.10;;;;;;;-2.70;100.00;98768.23;109583;1251;59023;-73
2023/12/06 06:48:36;;;;;;;124.10;79.80;;;;;;;-2.68;100.00;98766.63;109651;1251;59004;-74
2023/12/06 06:51:03;;;;;;;123.50;77.60;;;;;;;-2.67;100.00;98764.70;109599;1251;67022;-74
2023/12/06 06:53:30;;;;;;;124.90;78.60;;;;;;;-2.64;100.00;98767.61;109557;1250;60997;-73
2023/12/06 06:55:56;;;;;;;125.40;79.00;;;;;;;-2.61;100.00;98767.91;109560;1251;65215;-74
2023/12/06 06:58:23;;;;;;;121.60;77.00;;;;;;;-2.61;100.00;98772.92;109561;1251;58938;-73
2023/12/06 07:00:49;;;;;;;128.30;79.90;;;;;;;-2.58;100.00;98775.67;109578;1250;59186;-74
2023/12/06 07:03:17;;;;;;;122.00;82.80;;;;;;;-2.56;100.00;98773.73;109378;1250;67129;-73
2023/12/06 07:05:43;;;;;;;129.70;81.00;;;;;;;-2.53;100.00;98773.33;109560;1250;60980;-73
2023/12/06 07:08:10;;;;;;;126.50;80.90;;;;;;;-2.51;100.00;98768.43;109552;1251;65193;-74
2023/12/06 07:10:38;;;;;;;121.00;77.40;;;;;;;-2.49;100.00;98770.30;108763;1250;1003073;-72
2023/12/06 07:13:05;;;;;;;127.00;83.20;;;;;;;-2.47;100.00;98768.69;109575;1251;59061;-73
2023/12/06 07:15:32;;;;;;;120.20;76.80;;;;;;;-2.42;100.00;98771.92;108816;1251;1002197;-73
2023/12/06 07:17:59;;;;;;;118.90;76.60;;;;;;;-2.39;100.00;98774.65;109626;1251;61079;-73
2023/12/06 07:20:25;;;;;;;120.30;76.30;;;;;;;-2.36;100.00;98773.02;109592;1251;65002;-73
2023/12/06 07:22:53;;;;;;;120.00;76.00;;;;;;;-2.29;100.00;98770.97;109554;1251;58963;-73
2023/12/06 07:25:20;;;;;;;124.10;76.30;;;;;;;-2.24;100.00;98769.14;109600;1251;59106;-74
2023/12/06 07:27:47;;;;;;;120.90;78.40;;;;;;;-2.18;100.00;98770.23;109594;1250;67152;-73
2023/12/06 07:30:16;;;;;;;121.80;77.80;;;;;;;-2.13;100.00;98770.85;109595;1251;60078;-73
2023/12/06 07:32:43;;;;;;;122.70;78.80;;;;;;;-2.10;100.00;98772.54;109550;1251;65114;-73
2023/12/06 07:35:10;;;;;;;121.50;79.00;;;;;;;-2.07;100.00;98770.37;109570;1251;59083;-73
2023/12/06 07:37:36;;;;;;;123.80;78.80;;;;;;;-2.04;100.00;98767.55;109640;1251;59042;-72
2023/12/06 07:40:03;;;;;;;121.30;77.80;;;;;;;-2.03;100.00;98767.16;109654;1251;67186;-73
2023/12/06 07:42:31;;;;;;;120.00;78.50;;;;;;;-1.98;100.00;98765.69;109350;1251;61043;-73
2023/12/06 07:44:57;;;;;;;131.90;83.10;;;;;;;-1.92;100.00;98757.89;109590;1251;63799;-73
2023/12/06 07:47:24;;;;;;;132.60;87.50;;;;;;;-1.86;100.00;98760.91;109551;1251;58981;-73
2023/12/06 07:49:51;;;;;;;132.30;84.80;;;;;;;-1.77;100.00;98760.73;109604;1251;59032;-73
2023/12/06 07:52:17;;;;;;;127.70;81.60;;;;;;;-1.67;100.00;98756.00;109416;1251;67068;-73
2023/12/06 07:54:46;;;;;;;122.70;80.50;;;;;;;-1.63;100.00;98755.73;109650;1251;60949;-72
2023/12/06 07:57:13;;;;;;;124.70;80.20;;;;;;;-1.59;100.00;98755.80;109588;1251;65432;-73
2023/12/06 07:59:40;;;;;;;129.30;81.70;;;;;;;-1.57;100.00;98760.64;109580;1251;58907;-73
2023/12/06 08:02:08;;;;;;;125.40;79.20;;;;;;;-1.52;100.00;98757.91;109357;1251;59043;-74
2023/12/06 08:04:35;;;;;;;130.20;82.60;;;;;;;-1.42;100.00;98758.76;109619;1251;65827;-74
2023/12/06 08:07:02;;;;;;;129.40;85.10;;;;;;;-1.37;100.00;98754.27;109563;1251;60969;-73
2023/12/06 08:09:29;;;;;;;121.80;81.20;;;;;;;-1.33;100.00;98751.73;109570;1251;64071;-73
2023/12/06 08:11:56;;;;;;;131.50;87.00;;;;;;;-1.27;100.00;98747.95;109575;1251;59000;-73
2023/12/06 08:14:23;;;;;;;142.20;93.20;;;;;;;-1.18;100.00;98744.60;109278;1251;59398;-73
2023/12/06 08:16:50;;;;;;;134.70;88.40;;;;;;;-1.06;100.00;98741.17;109604;1250;67122;-72
2023/12/06 08:19:16;;;;;;;144.10;89.80;;;;;;;-0.96;100.00;98738.84;109571;1250;60161;-73
2023/12/06 08:21:43;;;;;;;136.50;91.80;;;;;;;-0.83;100.00;98735.56;109559;1251;63968;-73
2023/12/06 08:24:10;;;;;;;136.50;90.80;;;;;;;-0.72;100.00;98736.30;109525;1251;58928;-73
2023/12/06 08:26:36;;;;;;;140.10;91.60;;;;;;;-0.57;100.00;98737.68;109552;1251;58922;-73
2023/12/06 08:29:03;;;;;;;140.40;95.60;;;;;;;-0.40;100.00;98739.86;109564;1251;67167;-73
2023/12/06 08:31:30;;;;;;;158.80;104.70;;;;;;;-0.25;100.00;98742.23;109546;1251;61006;-73
2023/12/06 08:33:57;;;;;;;150.90;103.70;;;;;;;-0.10;100.00;98738.50;109513;1251;62838;-72
2023/12/06 08:36:24;;;;;;;135.90;97.70;;;;;;;0.02;100.00;98735.38;109554;1251;59022;-73
2023/12/06 08:38:51;;;;;;;128.50;87.40;;;;;;;0.11;100.00;98733.37;109588;1251;59106;-73
2023/12/06 08:41:18;;;;;;;122.30;86.50;;;;;;;0.18;100.00;98732.98;109546;1251;65968;-72
2023/12/06 08:43:46;;;;;;;130.80;90.70;;;;;;;0.23;100.00;98737.40;109590;1251;59888;-73
2023/12/06 08:46:12;;;;;;;121.10;83.20;;;;;;;0.30;100.00;98734.05;109564;1251;64988;-73
2023/12/06 08:48:39;;;;;;;116.80;80.20;;;;;;;0.30;100.00;98736.48;109437;1251;58993;-73
2023/12/06 08:51:05;;;;;;;116.20;81.20;;;;;;;0.30;100.00;98741.04;109539;1251;59044;-72
2023/12/06 08:53:32;;;;;;;126.40;86.80;;;;;;;0.34;100.00;98744.77;109597;1251;66715;-72
2023/12/06 08:55:59;;;;;;;122.90;84.70;;;;;;;0.41;100.00;98745.75;109608;1250;61127;-73
2023/12/06 08:58:27;;;;;;;118.90;84.00;;;;;;;0.48;100.00;98742.94;109590;1250;63995;-72
2023/12/06 09:00:54;;;;;;;118.60;84.20;;;;;;;0.52;100.00;98739.84;109521;1251;59003;-72
2023/12/06 09:03:20;;;;;;;124.80;87.70;;;;;;;0.62;100.00;98742.68;109542;1251;59120;-72
2023/12/06 09:05:48;;;;;;;123.30;85.70;;;;;;;0.71;100.00;98747.13;109568;1251;64743;-72
2023/12/06 09:08:15;;;;;;;120.70;85.20;;;;;;;0.80;100.00;98745.77;109573;1251;61373;-72
2023/12/06 09:10:41;;;;;;;113.90;77.30;;;;;;;0.92;100.00;98748.05;109555;1251;65081;-73
2023/12/06 09:13:08;;;;;;;112.90;78.60;;;;;;;0.92;100.00;98746.98;109541;1251;59058;-73
2023/12/06 09:15:35;;;;;;;113.50;79.30;;;;;;;0.91;100.00;98744.73;109562;1251;58899;-73
2023/12/06 09:18:01;;;;;;;114.80;77.20;;;;;;;0.92;100.00;98744.70;109400;1250;66042;-73
2023/12/06 09:20:28;;;;;;;115.30;78.40;;;;;;;0.96;100.00;98743.73;109605;1251;59841;-72
2023/12/06 09:22:54;;;;;;;106.30;74.90;;;;;;;0.97;100.00;98745.23;109606;1251;64006;-72
2023/12/06 09:25:22;;;;;;;106.00;74.40;;;;;;;0.93;100.00;98748.72;109509;1251;58981;-72
2023/12/06 09:27:50;;;;;;;106.70;74.40;;;;;;;0.85;100.00;98752.11;109582;1251;59038;-72
2023/12/06 09:30:16;;;;;;;104.60;71.80;;;;;;;0.78;100.00;98749.88;109520;1251;67022;-72
2023/12/06 09:32:43;;;;;;;106.70;75.90;;;;;;;0.73;100.00;98747.58;108852;1251;1003053;-72
2023/12/06 09:35:09;;;;;;;110.50;79.00;;;;;;;0.71;100.00;98751.66;109543;1251;59145;-72
2023/12/06 09:37:36;;;;;;;111.60;75.00;;;;;;;0.66;100.00;98751.30;109316;1251;58981;-73
2023/12/06 09:40:04;;;;;;;110.50;75.10;;;;;;;0.62;100.00;98750.91;109258;1251;59106;-73
2023/12/06 09:42:33;;;;;;;110.40;75.80;;;;;;;0.61;100.00;98749.89;109557;1251;67032;-72
2023/12/06 09:45:01;;;;;;;111.80;78.00;;;;;;;0.67;100.00;98748.83;109608;1251;61060;-73
2023/12/06 09:47:29;;;;;;;110.00;75.20;;;;;;;0.67;100.00;98746.04;109563;1251;64042;-72
2023/12/06 09:49:55;;;;;;;105.00;74.30;;;;;;;0.68;100.00;98744.41;109560;1251;59412;-73
2023/12/06 09:52:22;;;;;;;107.50;75.00;;;;;;;0.74;100.00;98746.87;109627;1251;59203;-74
2023/12/06 09:54:50;;;;;;;109.90;74.60;;;;;;;0.82;100.00;98746.42;109588;1251;66991;-72
2023/12/06 09:57:17;;;;;;;107.10;74.30;;;;;;;0.92;100.00;98748.56;109529;1251;61051;-72
2023/12/06 09:59:44;;;;;;;110.80;75.30;;;;;;;1.01;100.00;98747.92;109269;1251;65120;-73
2023/12/06 10:02:11;;;;;;;103.00;74.20;;;;;;;1.08;100.00;98745.59;109574;1251;59288;-73
2023/12/06 10:04:37;;;;;;;103.80;74.60;;;;;;;1.15;100.00;98740.13;109573;1251;60164;-72
2023/12/06 10:07:04;;;;;;;106.40;72.40;;;;;;;1.17;100.00;98738.67;109549;1250;67301;-72
2023/12/06 10:09:31;;;;;;;114.20;76.30;;;;;;;1.17;100.00;98739.36;109577;1251;61116;-71
2023/12/06 10:12:05;;;;;;;106.30;75.30;;;;;;;1.21;100.00;98740.08;109568;1251;64027;-72
2023/12/06 10:14:32;;;;;;;110.80;77.40;;;;;;;1.30;100.00;98743.45;109581;1251;59027;-71
2023/12/06 10:16:58;;;;;;;104.40;78.60;;;;;;;1.36;100.00;98746.63;109570;1251;59043;-72
2023/12/06 10:19:25;;;;;;;106.20;78.70;;;;;;;1.40;100.00;98747.35;109569;1251;66046;-72
2023/12/06 10:21:52;;;;;;;112.50;82.20;;;;;;;1.38;100.00;98748.30;109595;1251;61164;-72
2023/12/06 10:24:19;;;;;;;118.40;82.40;;;;;;;1.32;100.00;98744.45;109296;1251;65250;-72
2023/12/06 10:26:49;;;;;;;106.10;75.70;;;;;;;1.33;100.00;98740.58;109547;1251;58931;-72
2023/12/06 10:29:15;;;;;;;;;;;;;;;1.32;100.00;98739.38;109512;1251;59043;-72
2023/12/06 10:31:42;;;;;;;103.80;72.50;;;;;;;1.22;100.00;98741.10;109578;1251;66225;-72
2023/12/06 10:34:09;;;;;;;105.00;73.40;;;;;;;1.14;100.00;98740.14;109610;1251;61200;-74
2023/12/06 10:36:36;;;;;;;111.20;75.70;;;;;;;1.10;100.00;98745.16;109550;1251;63979;-73
2023/12/06 10:39:11;;;;;;;109.80;75.40;;;;;;;1.10;100.00;98747.80;109549;1251;59090;-74
2023/12/06 10:41:42;;;;;;;112.30;80.00;;;;;;;1.02;100.00;98749.30;109570;1251;59297;-74
2023/12/06 10:44:10;;;;;;;112.60;75.40;;;;;;;0.91;100.00;98749.48;109574;1250;67013;-73
2023/12/06 10:46:37;;;;;;;107.30;75.00;;;;;;;0.86;100.00;98750.66;109580;1251;60166;-74
2023/12/06 10:49:05;;;;;;;114.40;78.50;;;;;;;0.88;100.00;98750.77;109526;1251;65042;-74
2023/12/06 10:51:34;;;;;;;111.00;75.80;;;;;;;0.89;100.00;98748.15;109572;1251;59239;-73
2023/12/06 10:54:03;;;;;;;107.50;76.80;;;;;;;0.87;100.00;98743.48;109562;1251;58954;-76